createdAt,value
2022-11-14T00:01:21.362Z,88.00
2022-11-14T00:03:51.988Z,88.04
2022-11-14T00:06:19.801Z,87.83
2022-11-14T00:08:47.375Z,88.00
2022-11-14T00:11:15.048Z,87.98
2022-11-14T00:13:42.718Z,88.04
2022-11-14T00:16:10.356Z,87.64
2022-11-14T00:18:38.029Z,88.01
2022-11-14T00:21:05.751Z,88.04
2022-11-14T00:23:33.393Z,88.04
2022-11-14T00:26:01.013Z,88.15
2022-11-14T00:28:28.985Z,88.30
2022-11-14T00:30:56.811Z,88.16
2022-11-14T00:33:24.552Z,88.04
2022-11-14T00:35:56.807Z,88.08
2022-11-14T00:38:24.935Z,88.18
2022-11-14T00:40:52.626Z,88.30
2022-11-14T00:43:20.243Z,88.32
2022-11-14T00:45:48.915Z,88.11
2022-11-14T00:48:17.456Z,88.03
2022-11-14T00:50:45.605Z,88.34
2022-11-14T00:53:13.485Z,88.18
2022-11-14T00:55:42.409Z,88.11
2022-11-14T00:58:10.467Z,88.10
2022-11-14T01:00:38.440Z,87.98
2022-11-14T01:03:06.228Z,88.36
2022-11-14T01:05:33.900Z,88.29
2022-11-14T01:08:01.514Z,88.19
2022-11-14T01:10:29.126Z,88.14
2022-11-14T01:12:56.803Z,88.25
2022-11-14T01:15:24.449Z,88.35
2022-11-14T01:17:52.152Z,88.52
2022-11-14T01:20:19.842Z,88.37
2022-11-14T01:22:47.537Z,88.35
2022-11-14T01:25:15.235Z,88.33
2022-11-14T01:27:42.918Z,88.46
2022-11-14T01:30:10.983Z,88.47
2022-11-14T01:32:38.613Z,88.86
2022-11-14T01:35:06.362Z,88.82
2022-11-14T01:37:34.007Z,88.71
2022-11-14T01:40:01.611Z,89.05
2022-11-14T01:42:29.232Z,88.92
2022-11-14T01:44:56.916Z,88.85
2022-11-14T01:47:30.100Z,88.78
2022-11-14T01:50:02.196Z,88.94
2022-11-14T01:52:39.611Z,88.89
2022-11-14T01:55:09.879Z,88.86
2022-11-14T01:57:46.080Z,88.93
2022-11-14T02:00:14.421Z,88.74
2022-11-14T02:02:42.693Z,88.79
2022-11-14T02:05:14.397Z,88.94
2022-11-14T02:07:42.818Z,88.98
2022-11-14T02:10:16.932Z,89.14
2022-11-14T02:12:45.740Z,89.26
2022-11-14T02:15:15.481Z,89.35
2022-11-14T02:17:45.009Z,89.34
2022-11-14T02:20:12.933Z,89.50
2022-11-14T02:22:42.428Z,89.53
2022-11-14T02:25:14.029Z,89.66
2022-11-14T02:27:42.631Z,89.54
2022-11-14T02:30:17.361Z,89.73
2022-11-14T02:35:32.676Z,89.63
2022-11-14T02:38:00.337Z,89.80
2022-11-14T02:40:28.032Z,90.01
2022-11-14T02:42:55.619Z,90.18
2022-11-14T02:45:23.530Z,90.00
2022-11-14T02:47:51.335Z,90.04
2022-11-14T02:50:19.453Z,90.19
2022-11-14T02:52:47.046Z,90.30
2022-11-14T02:55:14.624Z,90.49
2022-11-14T02:57:42.272Z,90.67
2022-11-14T03:00:14.830Z,90.86
2022-11-14T03:02:42.682Z,90.65
2022-11-14T03:05:10.523Z,90.76
2022-11-14T03:07:38.231Z,90.85
2022-11-14T03:10:06.731Z,91.13
2022-11-14T03:12:34.438Z,91.12
2022-11-14T03:15:02.048Z,91.33
2022-11-14T03:17:32.995Z,91.40
2022-11-14T03:20:00.662Z,91.42
2022-11-14T03:22:29.111Z,91.62
2022-11-14T03:24:56.748Z,91.70
2022-11-14T03:27:24.411Z,91.75
2022-11-14T03:29:52.127Z,91.92
2022-11-14T03:32:19.749Z,91.94
2022-11-14T03:34:47.438Z,92.13
2022-11-14T03:37:15.061Z,91.98
2022-11-14T03:39:42.747Z,91.87
2022-11-14T03:42:10.728Z,92.06
2022-11-14T03:44:38.325Z,92.04
2022-11-14T03:47:06.131Z,92.01
2022-11-14T03:49:33.896Z,92.00
2022-11-14T03:52:01.520Z,92.13
2022-11-14T03:54:29.135Z,92.08
2022-11-14T03:56:56.751Z,92.18
2022-11-14T03:59:24.381Z,92.33
2022-11-14T04:01:52.067Z,92.16
2022-11-14T04:04:19.691Z,92.32
2022-11-14T04:06:47.427Z,92.81
2022-11-14T04:09:15.429Z,92.40
2022-11-14T04:11:43.153Z,92.66
2022-11-14T04:14:11.388Z,92.63
2022-11-14T04:16:39.049Z,92.82
2022-11-14T04:19:06.698Z,93.00
2022-11-14T04:21:34.311Z,93.21
2022-11-14T04:24:04.808Z,93.02
2022-11-14T04:26:34.732Z,92.88
2022-11-14T04:29:02.468Z,93.29
2022-11-14T04:31:30.163Z,93.16
2022-11-14T04:33:57.808Z,93.22
2022-11-14T04:36:25.427Z,92.80
2022-11-14T04:38:53.044Z,92.82
2022-11-14T04:41:20.685Z,92.66
2022-11-14T04:43:50.931Z,92.71
2022-11-14T04:46:18.825Z,92.64
2022-11-14T04:48:46.516Z,92.68
2022-11-14T04:51:14.132Z,92.53
2022-11-14T04:53:41.935Z,92.63
2022-11-14T04:56:09.628Z,92.59
2022-11-14T04:58:37.255Z,92.87
2022-11-14T05:01:12.400Z,92.93
2022-11-14T05:03:40.059Z,92.88
2022-11-14T05:06:07.941Z,92.62
2022-11-14T05:08:35.653Z,92.71
2022-11-14T05:11:03.314Z,92.46
2022-11-14T05:13:31.357Z,92.68
2022-11-14T05:16:02.514Z,92.66
2022-11-14T05:18:30.505Z,92.76
2022-11-14T05:21:02.283Z,92.54
2022-11-14T05:23:30.480Z,92.77
2022-11-14T05:26:16.655Z,92.97
2022-11-14T05:28:44.427Z,92.92
2022-11-14T05:31:14.793Z,92.63
2022-11-14T05:33:42.454Z,92.82
2022-11-14T05:36:12.644Z,93.04
2022-11-14T05:38:40.397Z,92.83
2022-11-14T05:41:09.976Z,92.67
2022-11-14T05:43:38.137Z,92.85
2022-11-14T05:46:08.321Z,92.82
2022-11-14T05:48:35.956Z,92.94
2022-11-14T05:51:05.878Z,93.07
2022-11-14T05:53:37.049Z,92.90
2022-11-14T05:56:07.611Z,93.09
2022-11-14T05:58:36.345Z,93.10
2022-11-14T06:01:12.735Z,92.88
2022-11-14T06:03:45.575Z,92.99
2022-11-14T06:06:19.057Z,93.14
2022-11-14T06:08:47.396Z,93.43
2022-11-14T06:11:20.814Z,93.13
2022-11-14T06:13:49.120Z,93.11
2022-11-14T06:16:19.636Z,93.14
2022-11-14T06:18:47.403Z,93.14
2022-11-14T06:21:16.940Z,93.14
2022-11-14T06:23:45.327Z,93.37
2022-11-14T06:26:32.718Z,93.32
2022-11-14T06:29:01.678Z,93.21
2022-11-14T06:31:29.635Z,93.44
2022-11-14T06:33:58.032Z,93.41
2022-11-14T06:36:25.705Z,93.34
2022-11-14T06:38:53.384Z,93.16
2022-11-14T06:41:23.055Z,93.11
2022-11-14T06:43:52.529Z,92.93
2022-11-14T06:46:22.586Z,92.79
2022-11-14T06:48:51.501Z,92.96
2022-11-14T06:51:20.259Z,92.95
2022-11-14T06:53:48.059Z,92.19
2022-11-14T06:56:17.577Z,92.59
2022-11-14T06:58:48.290Z,92.80
2022-11-14T07:01:18.963Z,93.36
2022-11-14T07:03:47.631Z,93.09
2022-11-14T07:06:20.776Z,93.44
2022-11-14T07:08:48.592Z,93.95
2022-11-14T07:11:23.902Z,94.29
2022-11-14T07:13:55.479Z,94.13
2022-11-14T07:16:30.592Z,93.97
2022-11-14T07:19:02.184Z,94.07
2022-11-14T07:21:31.102Z,93.97
2022-11-14T07:23:59.302Z,94.08
2022-11-14T07:26:28.285Z,94.11
2022-11-14T07:29:01.791Z,94.36
2022-11-14T07:31:29.997Z,94.46
2022-11-14T07:33:57.635Z,94.56
2022-11-14T07:36:25.637Z,94.54
2022-11-14T07:38:53.335Z,94.58
2022-11-14T07:41:21.058Z,94.70
2022-11-14T07:43:48.738Z,94.74
2022-11-14T07:46:18.491Z,94.86
2022-11-14T07:48:46.539Z,94.93
2022-11-14T07:51:19.672Z,95.12
2022-11-14T07:53:47.424Z,95.19
2022-11-14T07:56:15.416Z,95.37
2022-11-14T07:58:43.690Z,95.53
2022-11-14T08:01:13.417Z,95.79
2022-11-14T08:03:45.625Z,95.68
2022-11-14T08:06:16.349Z,96.45
2022-11-14T08:08:44.342Z,96.66
2022-11-14T08:11:12.838Z,96.73
2022-11-14T08:13:40.449Z,97.19
2022-11-14T08:16:13.415Z,97.50
2022-11-14T08:18:41.977Z,97.85
2022-11-14T08:21:09.941Z,98.35
2022-11-14T08:23:37.708Z,98.72
2022-11-14T08:26:05.462Z,99.23
2022-11-14T08:28:33.366Z,99.97
2022-11-14T08:31:05.510Z,100.00
2022-11-14T08:33:33.529Z,100.00
2022-11-14T08:36:05.756Z,100.00
2022-11-14T08:38:34.565Z,100.00
2022-11-14T08:41:04.173Z,100.00
2022-11-14T08:43:33.541Z,100.00
2022-11-14T08:46:04.909Z,100.00
2022-11-14T08:48:33.954Z,100.00
2022-11-14T08:51:06.940Z,100.00
2022-11-14T08:53:35.249Z,100.00
2022-11-14T08:56:03.232Z,100.00
2022-11-14T08:58:34.442Z,100.00
2022-11-14T09:01:07.725Z,100.00
2022-11-14T09:03:35.720Z,100.00
2022-11-14T09:06:04.117Z,100.00
2022-11-14T09:08:32.422Z,100.00
2022-11-14T09:11:05.964Z,100.00
2022-11-14T09:13:37.077Z,100.00
2022-11-14T09:16:04.813Z,100.00
2022-11-14T09:18:33.889Z,100.00
2022-11-14T09:21:07.274Z,100.00
2022-11-14T09:23:35.980Z,100.00
2022-11-14T09:26:08.957Z,100.00
2022-11-14T09:28:37.741Z,100.00
2022-11-14T09:31:08.711Z,100.00
2022-11-14T09:33:37.058Z,100.00
2022-11-14T09:36:08.199Z,100.00
2022-11-14T09:38:38.771Z,100.00
2022-11-14T09:41:09.762Z,100.00
2022-11-14T09:44:04.075Z,100.00
2022-11-14T09:46:40.298Z,100.00
2022-11-14T09:49:28.652Z,100.00
2022-11-14T09:52:04.741Z,100.00
2022-11-14T09:54:59.452Z,100.00
2022-11-14T09:57:27.805Z,100.00
2022-11-14T09:59:57.013Z,100.00
2022-11-14T10:02:56.732Z,100.00
2022-11-14T10:05:34.031Z,100.00
2022-11-14T10:08:29.392Z,100.00
2022-11-14T10:11:08.843Z,100.00
2022-11-14T10:14:06.179Z,100.00
2022-11-14T10:16:49.162Z,100.00
2022-11-14T10:19:42.507Z,100.00
2022-11-14T10:22:28.721Z,100.00
2022-11-14T10:25:25.704Z,100.00
2022-11-14T10:28:17.834Z,100.00
2022-11-14T10:31:30.475Z,100.00
2022-11-14T10:34:22.988Z,100.00
2022-11-14T10:36:59.657Z,100.00
2022-11-14T10:39:33.122Z,100.00
2022-11-14T10:42:09.372Z,100.00
2022-11-14T10:44:57.954Z,100.00
2022-11-14T10:47:29.036Z,100.00
2022-11-14T10:50:01.341Z,100.00
2022-11-14T10:52:41.132Z,100.00
2022-11-14T10:55:15.518Z,100.00
2022-11-14T10:57:45.171Z,100.00
2022-11-14T11:00:19.436Z,100.00
2022-11-14T11:02:51.539Z,100.00
2022-11-14T11:05:20.931Z,100.00
2022-11-14T11:08:36.053Z,100.00
2022-11-14T11:11:19.110Z,100.00
2022-11-14T11:13:56.934Z,100.00
2022-11-14T11:16:27.080Z,100.00
2022-11-14T11:18:54.942Z,100.00
2022-11-14T11:21:24.541Z,100.00
2022-11-14T11:23:56.978Z,100.00
2022-11-14T11:26:26.292Z,100.00
2022-11-14T11:29:12.182Z,100.00
2022-11-14T11:31:48.736Z,100.00
2022-11-14T11:34:17.100Z,100.00
2022-11-14T11:36:51.139Z,100.00
2022-11-14T11:39:27.642Z,100.00
2022-11-14T11:42:14.525Z,100.00
2022-11-14T11:44:47.932Z,100.00
2022-11-14T11:47:19.701Z,100.00
2022-11-14T11:49:53.875Z,100.00
2022-11-14T11:52:31.182Z,100.00
2022-11-14T11:55:14.500Z,100.00
2022-11-14T11:57:49.003Z,100.00
2022-11-14T12:00:22.228Z,100.00
2022-11-14T12:02:53.375Z,100.00
2022-11-14T12:05:38.456Z,100.00
2022-11-14T12:08:13.278Z,99.51
2022-11-14T12:10:43.768Z,99.93
2022-11-14T12:13:26.600Z,99.74
2022-11-14T12:16:20.667Z,99.43
2022-11-14T12:18:48.213Z,99.73
2022-11-14T12:21:52.013Z,99.56
2022-11-14T12:24:32.880Z,99.27
2022-11-14T12:27:12.516Z,99.10
2022-11-14T12:29:55.133Z,99.16
2022-11-14T12:32:42.728Z,99.08
2022-11-14T12:35:34.653Z,99.10
2022-11-14T12:38:06.152Z,98.90
2022-11-14T12:40:36.939Z,98.53
2022-11-14T12:43:07.877Z,98.41
2022-11-14T12:45:41.204Z,98.43
2022-11-14T12:48:28.552Z,98.18
2022-11-14T12:50:57.613Z,97.70
2022-11-14T12:53:37.016Z,97.74
2022-11-14T12:56:30.684Z,97.60
2022-11-14T12:59:10.471Z,97.58
2022-11-14T13:01:53.132Z,97.33
2022-11-14T13:04:47.286Z,96.87
2022-11-14T13:07:34.282Z,96.57
2022-11-14T13:10:14.840Z,96.74
2022-11-14T13:13:02.855Z,96.33
2022-11-14T13:15:52.393Z,96.69
2022-11-14T13:18:45.105Z,96.37
2022-11-14T13:21:42.327Z,96.16
2022-11-14T13:24:17.378Z,96.12
2022-11-14T13:26:47.435Z,95.71
2022-11-14T13:29:39.934Z,95.74
2022-11-14T13:32:13.836Z,95.53
2022-11-14T13:34:50.534Z,94.82
2022-11-14T13:37:55.930Z,95.01
2022-11-14T13:40:34.415Z,94.78
2022-11-14T13:43:40.601Z,95.14
2022-11-14T13:46:31.131Z,95.07
2022-11-14T13:49:19.189Z,95.35
2022-11-14T13:51:47.963Z,95.44
2022-11-14T13:54:18.485Z,95.21
2022-11-14T13:56:46.476Z,95.03
2022-11-14T13:59:36.812Z,94.96
2022-11-14T14:02:13.548Z,94.75
2022-11-14T14:05:05.273Z,95.16
2022-11-14T14:07:55.403Z,95.08
2022-11-14T14:10:49.476Z,94.88
2022-11-14T14:13:35.468Z,95.10
2022-11-14T14:16:29.186Z,95.12
2022-11-14T14:19:18.704Z,95.22
2022-11-14T14:22:02.052Z,95.47
2022-11-14T14:24:45.025Z,95.29
2022-11-14T14:27:22.425Z,95.43
2022-11-14T14:30:28.341Z,95.50
2022-11-14T14:33:08.147Z,95.50
2022-11-14T14:35:40.672Z,95.81
2022-11-14T14:38:23.859Z,95.58
2022-11-14T14:40:51.913Z,95.88
2022-11-14T14:43:32.579Z,95.73
2022-11-14T14:46:00.752Z,95.67
2022-11-14T14:48:32.074Z,95.83
2022-11-14T14:51:01.481Z,95.83
2022-11-14T14:53:32.436Z,95.83
2022-11-14T14:56:05.583Z,95.87
2022-11-14T14:58:35.758Z,95.94
2022-11-14T15:01:13.790Z,95.99
2022-11-14T15:03:49.326Z,96.07
2022-11-14T15:06:32.346Z,96.03
2022-11-14T15:09:14.985Z,96.19
2022-11-14T15:11:45.454Z,96.23
2022-11-14T15:14:25.942Z,96.18
2022-11-14T15:16:54.393Z,96.31
2022-11-14T15:19:25.824Z,96.13
2022-11-14T15:22:21.459Z,96.43
2022-11-14T15:25:14.467Z,96.74
2022-11-14T15:27:54.396Z,96.87
2022-11-14T15:30:35.607Z,96.87
2022-11-14T15:33:24.448Z,96.98
2022-11-14T15:36:10.151Z,97.05
2022-11-14T15:38:45.909Z,97.30
2022-11-14T15:41:24.994Z,97.22
2022-11-14T15:43:54.786Z,97.25
2022-11-14T15:46:38.891Z,97.34
2022-11-14T15:49:15.343Z,97.51
2022-11-14T15:52:01.733Z,97.49
2022-11-14T15:54:37.588Z,97.48
2022-11-14T15:57:23.501Z,97.67
2022-11-14T15:59:51.167Z,97.81
2022-11-14T16:02:25.643Z,97.68
2022-11-14T16:04:54.468Z,97.87
2022-11-14T16:07:23.081Z,97.94
2022-11-14T16:09:51.280Z,98.20
2022-11-14T16:12:19.074Z,98.32
2022-11-14T16:14:46.929Z,98.39
2022-11-14T16:17:18.940Z,98.52
2022-11-14T16:19:46.588Z,98.62
2022-11-14T16:22:17.982Z,98.77
2022-11-14T16:24:45.703Z,98.93
2022-11-14T16:27:13.389Z,99.07
2022-11-14T16:29:41.040Z,99.18
2022-11-14T16:32:11.555Z,99.47
2022-11-14T16:34:39.287Z,99.52
2022-11-14T16:37:07.289Z,99.65
2022-11-14T16:39:34.881Z,99.67
2022-11-14T16:42:03.713Z,99.69
2022-11-14T16:44:35.803Z,99.75
2022-11-14T16:47:08.030Z,99.88
2022-11-14T16:49:37.939Z,99.93
2022-11-14T16:52:09.567Z,100.00
2022-11-14T16:54:37.343Z,100.00
2022-11-14T16:57:05.020Z,100.00
2022-11-14T16:59:33.209Z,100.00
2022-11-14T17:02:00.884Z,100.00
2022-11-14T17:04:28.519Z,100.00
2022-11-14T17:06:56.238Z,100.00
2022-11-14T17:09:23.910Z,100.00
2022-11-14T17:11:51.603Z,100.00
2022-11-14T17:14:19.232Z,100.00
2022-11-14T17:16:47.721Z,100.00
2022-11-14T17:19:15.507Z,100.00
2022-11-14T17:21:43.976Z,100.00
2022-11-14T17:24:11.862Z,100.00
2022-11-14T17:26:39.739Z,100.00
2022-11-14T17:29:08.047Z,100.00
2022-11-14T17:31:38.331Z,100.00
2022-11-14T17:34:10.458Z,100.00
2022-11-14T17:36:38.161Z,100.00
2022-11-14T17:39:05.806Z,100.00
2022-11-14T17:41:34.680Z,100.00
2022-11-14T17:44:04.584Z,100.00
2022-11-14T17:46:32.443Z,100.00
2022-11-14T17:49:00.524Z,100.00
2022-11-14T17:51:28.380Z,100.00
2022-11-14T17:53:56.043Z,100.00
2022-11-14T17:56:25.734Z,100.00
2022-11-14T17:58:54.703Z,100.00
2022-11-14T18:01:25.008Z,100.00
2022-11-14T18:03:52.773Z,100.00
2022-11-14T18:06:22.200Z,100.00
2022-11-14T18:08:50.073Z,100.00
2022-11-14T18:11:18.709Z,100.00
2022-11-14T18:13:46.540Z,100.00
2022-11-14T18:16:17.454Z,100.00
2022-11-14T18:18:45.589Z,100.00
2022-11-14T18:21:19.304Z,100.00
2022-11-14T18:23:54.750Z,100.00
2022-11-14T18:26:28.489Z,100.00
2022-11-14T18:28:57.777Z,100.00
2022-11-14T18:31:26.529Z,100.00
2022-11-14T18:33:54.445Z,100.00
2022-11-14T18:36:22.751Z,100.00
2022-11-14T18:38:50.454Z,100.00
2022-11-14T18:41:21.982Z,100.00
2022-11-14T18:43:49.801Z,100.00
2022-11-14T18:46:20.752Z,100.00
2022-11-14T18:48:52.971Z,100.00
2022-11-14T18:51:23.548Z,100.00
2022-11-14T18:53:52.427Z,100.00
2022-11-14T18:56:22.791Z,100.00
2022-11-14T18:58:54.514Z,100.00
2022-11-14T19:01:26.097Z,100.00
2022-11-14T19:03:57.627Z,100.00
2022-11-14T19:06:25.403Z,100.00
2022-11-14T19:09:11.105Z,100.00
2022-11-14T19:11:58.178Z,100.00
2022-11-14T19:14:25.971Z,100.00
2022-11-14T19:16:53.941Z,100.00
2022-11-14T19:19:21.773Z,100.00
2022-11-14T19:21:53.508Z,100.00
2022-11-14T19:24:21.126Z,100.00
2022-11-14T19:26:48.988Z,100.00
2022-11-14T19:29:16.881Z,100.00
2022-11-14T19:31:44.705Z,100.00
2022-11-14T19:34:12.384Z,100.00
2022-11-14T19:39:27.783Z,100.00
2022-11-14T19:41:55.464Z,100.00
2022-11-14T19:44:23.090Z,100.00
2022-11-14T19:46:50.904Z,100.00
2022-11-14T19:49:18.544Z,100.00
2022-11-14T19:51:46.295Z,100.00
2022-11-14T19:54:14.060Z,100.00
2022-11-14T19:56:41.914Z,100.00
2022-11-14T19:59:14.351Z,100.00
2022-11-14T20:01:43.126Z,100.00
2022-11-14T20:04:13.447Z,100.00
2022-11-14T20:06:42.685Z,100.00
2022-11-14T20:09:11.574Z,100.00
2022-11-14T20:11:39.367Z,100.00
2022-11-14T20:14:07.300Z,100.00
2022-11-14T20:16:37.940Z,100.00
2022-11-14T20:19:06.078Z,100.00
2022-11-14T20:21:35.237Z,100.00
2022-11-14T20:24:03.290Z,100.00
2022-11-14T20:26:30.993Z,100.00
2022-11-14T20:29:00.135Z,100.00
2022-11-14T20:31:30.603Z,100.00
2022-11-14T20:33:58.308Z,100.00
2022-11-14T20:36:35.365Z,100.00
2022-11-14T20:39:15.443Z,100.00
2022-11-14T20:41:43.113Z,100.00
2022-11-14T20:44:10.875Z,100.00
2022-11-14T20:46:38.629Z,100.00
2022-11-14T20:49:08.201Z,100.00
2022-11-14T20:51:37.667Z,100.00
2022-11-14T20:54:05.429Z,100.00
2022-11-14T20:56:33.116Z,100.00
2022-11-14T20:59:00.810Z,100.00
2022-11-14T21:01:29.651Z,100.00
2022-11-14T21:03:57.388Z,100.00
2022-11-14T21:06:25.024Z,100.00
2022-11-14T21:08:52.638Z,100.00
2022-11-14T21:11:20.549Z,100.00
2022-11-14T21:13:57.216Z,100.00
2022-11-14T21:16:28.569Z,100.00
2022-11-14T21:18:56.661Z,100.00
2022-11-14T21:21:25.979Z,100.00
2022-11-14T21:23:54.312Z,100.00
2022-11-14T21:26:30.219Z,100.00
2022-11-14T21:29:06.355Z,100.00
2022-11-14T21:31:37.410Z,100.00
2022-11-14T21:34:08.003Z,100.00
2022-11-14T21:36:45.805Z,100.00
2022-11-14T21:39:16.289Z,100.00
2022-11-14T21:41:45.325Z,100.00
2022-11-14T21:44:15.531Z,100.00
2022-11-14T21:46:43.795Z,100.00
2022-11-14T21:49:11.518Z,100.00
2022-11-14T21:51:39.201Z,100.00
2022-11-14T21:54:07.511Z,100.00
2022-11-14T21:56:36.749Z,100.00
2022-11-14T21:59:14.708Z,100.00
2022-11-14T22:02:03.420Z,100.00
2022-11-14T22:04:32.569Z,100.00
2022-11-14T22:07:08.017Z,100.00
2022-11-14T22:09:41.079Z,100.00
2022-11-14T22:12:11.863Z,100.00
2022-11-14T22:14:39.516Z,100.00
2022-11-14T22:17:07.167Z,100.00
2022-11-14T22:19:34.837Z,100.00
2022-11-14T22:22:02.545Z,100.00
2022-11-14T22:24:30.189Z,100.00
2022-11-14T22:26:57.831Z,100.00
2022-11-14T22:29:25.469Z,100.00
2022-11-14T22:31:54.005Z,100.00
2022-11-14T22:34:21.627Z,100.00
2022-11-14T22:36:49.268Z,100.00
2022-11-14T22:39:16.863Z,100.00
2022-11-14T22:41:44.584Z,100.00
2022-11-14T22:44:12.301Z,100.00
2022-11-14T22:46:40.206Z,100.00
2022-11-14T22:49:07.872Z,100.00
2022-11-14T22:51:35.565Z,100.00
2022-11-14T22:54:03.204Z,100.00
2022-11-14T22:56:30.998Z,100.00
2022-11-14T22:59:00.637Z,100.00
2022-11-14T23:01:33.489Z,100.00
2022-11-14T23:04:04.017Z,100.00
2022-11-14T23:06:34.372Z,100.00
2022-11-14T23:09:03.530Z,100.00
2022-11-14T23:11:33.180Z,100.00
2022-11-14T23:14:02.028Z,100.00
2022-11-14T23:16:33.387Z,100.00
2022-11-14T23:19:03.386Z,100.00
2022-11-14T23:21:34.292Z,100.00
2022-11-14T23:24:07.979Z,100.00
2022-11-14T23:26:35.789Z,100.00
2022-11-14T23:29:04.193Z,100.00
2022-11-14T23:31:31.883Z,100.00
2022-11-14T23:33:59.672Z,100.00
2022-11-14T23:36:27.326Z,100.00
2022-11-14T23:38:55.170Z,100.00
2022-11-14T23:41:26.457Z,100.00
2022-11-14T23:43:54.478Z,100.00
2022-11-14T23:46:22.333Z,100.00
2022-11-14T23:48:50.236Z,100.00
2022-11-14T23:51:18.588Z,100.00
2022-11-14T23:53:46.384Z,100.00
2022-11-14T23:56:14.949Z,100.00
2022-11-14T23:58:42.975Z,100.00
